Highmore, South Dakota
Current Conditions -  °F | °C
As of 12:53 PM on Saturday 25 Oct 2014 (Local Time) from KPIR Reporting Station
Clear Clear  
Wind Chill: 63°   Ceiling: Unl
Heat Index: 63°   Visibility: 10mi
Dew Point: 31°   Wind: 3mph
Humidity: 30%   Direction: NA
Pressure: 30.14"   Gusts: NA
Location:  44.52°N, 99.44°W
Report Text: KPIR 251753Z AUTO VRB03KT 10SM CLR 17/M01 A3014 RMK AO2 SLP203 T01721006 10172 20028 58008
Loading
Personal Weather Stations






























Interactive Weather Map
Tropical Storm Tracking
New forecast layout! Learn more

10-Day Weather Forecast

Advertisements
Track Severe Weather on mobile